createdAt,value
2023-04-17T00:01:17.708Z,101929.81
2023-04-17T00:02:36.517Z,101929.81
2023-04-17T00:03:44.816Z,101936.00
2023-04-17T00:06:14.079Z,101928.19
2023-04-17T00:07:36.424Z,101928.19
2023-04-17T00:08:40.737Z,101925.66
2023-04-17T00:11:08.787Z,101928.19
2023-04-17T00:12:36.449Z,101928.19
2023-04-17T00:13:36.442Z,101923.91
2023-04-17T00:16:03.199Z,101925.50
2023-04-17T00:17:36.514Z,101925.50
2023-04-17T00:18:29.692Z,101922.09
2023-04-17T00:20:56.545Z,101888.44
2023-04-17T00:22:36.444Z,101888.44
2023-04-17T00:23:22.929Z,101947.34
2023-04-17T00:25:49.301Z,101915.91
2023-04-17T00:27:36.431Z,101915.91
2023-04-17T00:28:15.626Z,101899.50
2023-04-17T00:30:41.993Z,101910.69
2023-04-17T00:32:36.467Z,101910.69
2023-04-17T00:33:08.380Z,101872.94
2023-04-17T00:35:34.765Z,101871.19
2023-04-17T00:37:36.441Z,101871.19
2023-04-17T00:38:01.148Z,101894.38
2023-04-17T00:40:27.630Z,101914.94
2023-04-17T00:42:36.446Z,101914.94
2023-04-17T00:42:59.908Z,101913.31
2023-04-17T00:45:26.404Z,101910.00
2023-04-17T00:47:36.499Z,101910.00
2023-04-17T00:47:53.241Z,101845.47
2023-04-17T00:50:19.916Z,101913.56
2023-04-17T00:52:36.455Z,101913.56
2023-04-17T00:52:47.306Z,101911.94
2023-04-17T00:55:14.486Z,101804.66
2023-04-17T00:57:36.440Z,101804.66
2023-04-17T00:57:42.188Z,101931.16
2023-04-17T01:00:10.212Z,101895.75
2023-04-17T01:02:37.792Z,101916.19
2023-04-17T01:02:38.283Z,101916.19
2023-04-17T01:05:04.611Z,101741.00
2023-04-17T01:07:31.105Z,101891.19
2023-04-17T01:07:36.432Z,101891.19
2023-04-17T01:09:57.584Z,101806.97
2023-04-17T01:12:25.039Z,101910.00
2023-04-17T01:12:36.510Z,101910.00
2023-04-17T01:14:54.927Z,101867.00
2023-04-17T01:17:22.065Z,101876.53
2023-04-17T01:17:36.506Z,101876.53
2023-04-17T01:19:49.674Z,101893.66
2023-04-17T01:22:16.715Z,101909.16
2023-04-17T01:22:36.471Z,101909.16
2023-04-17T01:24:43.434Z,101917.91
2023-04-17T01:27:09.923Z,101895.47
2023-04-17T01:27:36.449Z,101895.47
2023-04-17T01:29:36.332Z,101890.34
2023-04-17T01:32:02.837Z,101901.53
2023-04-17T01:32:36.462Z,101901.53
2023-04-17T01:34:29.269Z,101913.47
2023-04-17T01:36:55.686Z,101896.31
2023-04-17T01:37:36.460Z,101896.31
2023-04-17T01:39:22.119Z,101921.22
2023-04-17T01:41:48.532Z,101915.22
2023-04-17T01:42:36.481Z,101915.22
2023-04-17T01:44:14.985Z,101921.22
2023-04-17T01:46:41.451Z,101915.06
2023-04-17T01:47:36.469Z,101915.06
2023-04-17T01:49:07.896Z,101915.91
2023-04-17T01:51:34.388Z,101870.47
2023-04-17T01:52:36.479Z,101870.47
2023-04-17T01:54:00.920Z,101898.75
2023-04-17T01:56:27.342Z,101915.91
2023-04-17T01:57:36.477Z,101915.91
2023-04-17T01:58:54.495Z,101918.44
2023-04-17T02:01:21.213Z,101742.25
2023-04-17T02:02:36.680Z,101742.25
2023-04-17T02:03:47.819Z,101921.91
2023-04-17T02:06:15.727Z,101914.13
2023-04-17T02:07:36.474Z,101914.13
2023-04-17T02:08:42.545Z,101922.91
2023-04-17T02:11:10.137Z,101919.53
2023-04-17T02:12:36.487Z,101919.53
2023-04-17T02:13:36.679Z,101919.50
2023-04-17T02:16:03.240Z,101915.22
2023-04-17T02:17:36.479Z,101915.22
2023-04-17T02:18:29.743Z,101929.25
2023-04-17T02:20:56.225Z,101927.53
2023-04-17T02:22:36.459Z,101927.53
2023-04-17T02:23:22.802Z,101921.50
2023-04-17T02:25:49.246Z,101918.88
2023-04-17T02:27:36.466Z,101918.88
2023-04-17T02:28:15.832Z,101918.00
2023-04-17T02:30:42.386Z,101929.44
2023-04-17T02:32:36.489Z,101929.44
2023-04-17T02:33:08.862Z,101926.00
2023-04-17T02:35:35.382Z,101929.53
2023-04-17T02:37:36.494Z,101929.53
2023-04-17T02:38:02.041Z,101896.81
2023-04-17T02:40:28.507Z,101918.38
2023-04-17T02:42:36.505Z,101918.38
2023-04-17T02:42:54.989Z,101931.41
2023-04-17T02:45:21.640Z,101923.59
2023-04-17T02:47:36.514Z,101923.59
2023-04-17T02:47:48.693Z,101928.88
2023-04-17T02:50:15.439Z,101919.25
2023-04-17T02:52:36.501Z,101919.25
2023-04-17T02:52:41.955Z,101928.06
2023-04-17T02:55:09.737Z,101925.53
2023-04-17T02:57:36.260Z,101936.81
2023-04-17T02:57:36.497Z,101936.81
2023-04-17T03:00:07.843Z,101930.75
2023-04-17T03:02:34.579Z,101927.31
2023-04-17T03:02:36.708Z,101927.31
2023-04-17T03:05:02.117Z,101923.91
2023-04-17T03:07:28.482Z,101919.00
2023-04-17T03:07:36.478Z,101919.00
2023-04-17T03:09:57.471Z,101858.75
2023-04-17T03:12:24.069Z,101924.97
2023-04-17T03:12:36.488Z,101924.97
2023-04-17T03:14:50.705Z,101925.81
2023-04-17T03:17:17.328Z,101883.91
2023-04-17T03:17:36.503Z,101883.91
2023-04-17T03:19:43.737Z,101774.00
2023-04-17T03:22:12.712Z,101753.22
2023-04-17T03:22:36.466Z,101753.22
2023-04-17T03:24:41.169Z,101819.38
2023-04-17T03:27:07.588Z,101932.09
2023-04-17T03:27:36.462Z,101932.09
2023-04-17T03:29:34.009Z,101912.25
2023-04-17T03:32:00.424Z,101918.50
2023-04-17T03:32:36.467Z,101918.50
2023-04-17T03:34:27.074Z,101910.84
2023-04-17T03:36:55.881Z,101926.03
2023-04-17T03:37:36.537Z,101926.03
2023-04-17T03:39:24.425Z,101909.03
2023-04-17T03:41:50.861Z,101892.66
2023-04-17T03:42:36.458Z,101892.66
2023-04-17T03:44:18.534Z,101929.56
2023-04-17T03:46:44.899Z,101939.16
2023-04-17T03:47:36.548Z,101939.16
2023-04-17T03:49:11.478Z,101943.53
2023-04-17T03:51:38.094Z,101939.97
2023-04-17T03:52:36.495Z,101939.97
2023-04-17T03:54:04.517Z,101936.53
2023-04-17T03:56:30.917Z,101920.25
2023-04-17T03:57:36.474Z,101920.25
2023-04-17T03:58:57.266Z,101728.66
2023-04-17T04:01:28.091Z,101940.03
2023-04-17T04:02:36.657Z,101940.03
2023-04-17T04:03:55.458Z,101867.88
2023-04-17T04:06:22.354Z,101882.50
2023-04-17T04:07:36.492Z,101882.50
2023-04-17T04:08:49.268Z,101945.25
2023-04-17T04:11:16.534Z,101937.47
2023-04-17T04:12:36.431Z,101937.47
2023-04-17T04:13:43.008Z,101930.56
2023-04-17T04:16:09.545Z,101944.44
2023-04-17T04:17:36.502Z,101944.44
2023-04-17T04:18:37.128Z,101941.97
2023-04-17T04:21:03.730Z,101942.72
2023-04-17T04:22:36.489Z,101942.72
2023-04-17T04:23:30.665Z,101947.03
2023-04-17T04:25:58.010Z,101948.84
2023-04-17T04:27:36.505Z,101948.84
2023-04-17T04:28:24.481Z,101955.72
2023-04-17T04:30:52.954Z,101962.78
2023-04-17T04:32:36.509Z,101962.78
2023-04-17T04:33:20.616Z,101954.19
2023-04-17T04:35:51.906Z,101961.16
2023-04-17T04:37:36.489Z,101961.16
2023-04-17T04:38:18.636Z,101957.69
2023-04-17T04:40:49.840Z,101960.28
2023-04-17T04:42:36.475Z,101960.28
2023-04-17T04:43:16.371Z,101965.66
2023-04-17T04:45:42.845Z,101959.56
2023-04-17T04:47:36.530Z,101959.56
2023-04-17T04:48:09.342Z,101937.41
2023-04-17T04:50:35.897Z,101972.72
2023-04-17T04:52:39.862Z,101972.72
2023-04-17T04:53:02.337Z,101964.06
2023-04-17T04:55:30.760Z,101963.22
2023-04-17T04:57:36.529Z,101963.22
2023-04-17T04:57:57.601Z,101964.88
2023-04-17T05:00:24.767Z,101971.88
2023-04-17T05:02:36.627Z,101971.88
2023-04-17T05:02:51.253Z,101916.88
2023-04-17T05:05:17.727Z,101971.97
2023-04-17T05:07:36.489Z,101971.97
2023-04-17T05:07:44.117Z,101972.84
2023-04-17T05:10:10.520Z,101978.91
2023-04-17T05:12:36.950Z,101972.72
2023-04-17T05:12:37.505Z,101972.72
2023-04-17T05:15:03.805Z,101960.75
2023-04-17T05:17:30.313Z,101940.25
2023-04-17T05:17:36.558Z,101940.25
2023-04-17T05:19:56.650Z,101932.50
2023-04-17T05:22:23.003Z,101988.38
2023-04-17T05:22:36.465Z,101988.38
2023-04-17T05:24:49.445Z,101942.88
2023-04-17T05:27:16.503Z,101994.47
2023-04-17T05:27:36.517Z,101994.47
2023-04-17T05:29:42.816Z,101996.19
2023-04-17T05:32:09.255Z,101997.91
2023-04-17T05:32:36.519Z,101997.91
2023-04-17T05:34:35.857Z,101997.06
2023-04-17T05:37:03.227Z,101974.53
2023-04-17T05:37:36.513Z,101974.53
2023-04-17T05:39:29.594Z,101996.06
2023-04-17T05:41:56.427Z,101886.72
2023-04-17T05:42:36.550Z,101886.72
2023-04-17T05:44:22.864Z,101997.63
2023-04-17T05:46:49.310Z,101996.81
2023-04-17T05:47:36.513Z,101996.81
2023-04-17T05:49:15.773Z,101975.22
2023-04-17T05:51:42.156Z,101997.59
2023-04-17T05:52:38.689Z,101997.59
2023-04-17T05:54:08.556Z,101931.28
2023-04-17T05:56:34.905Z,101991.47
2023-04-17T05:57:36.495Z,101991.47
2023-04-17T05:59:01.227Z,101915.72
2023-04-17T06:01:29.717Z,101994.00
2023-04-17T06:02:36.644Z,101994.00
2023-04-17T06:03:58.400Z,101976.72
2023-04-17T06:06:24.939Z,101997.41
2023-04-17T06:07:36.481Z,101997.41
2023-04-17T06:08:52.472Z,102000.00
2023-04-17T06:11:18.816Z,102007.75
2023-04-17T06:12:36.489Z,102007.75
2023-04-17T06:13:45.195Z,102005.13
2023-04-17T06:16:11.633Z,102006.91
2023-04-17T06:17:36.466Z,102006.91
2023-04-17T06:18:38.312Z,102012.06
2023-04-17T06:21:04.865Z,102003.53
2023-04-17T06:22:36.525Z,102003.53
2023-04-17T06:23:31.589Z,102005.22
2023-04-17T06:25:57.925Z,102000.69
2023-04-17T06:27:37.218Z,102000.69
2023-04-17T06:28:24.436Z,102001.38
2023-04-17T06:30:51.035Z,101949.69
2023-04-17T06:32:36.509Z,101949.69
2023-04-17T06:33:17.433Z,102008.09
2023-04-17T06:35:43.925Z,102014.06
2023-04-17T06:37:36.480Z,102014.06
2023-04-17T06:38:10.383Z,102009.66
2023-04-17T06:40:36.805Z,102005.81
2023-04-17T06:42:36.476Z,102005.81
2023-04-17T06:43:03.198Z,102009.22
2023-04-17T06:45:29.591Z,101993.94
2023-04-17T06:47:36.581Z,101993.94
2023-04-17T06:47:55.981Z,102005.53
2023-04-17T06:50:22.486Z,102009.00
2023-04-17T06:52:36.484Z,102009.00
2023-04-17T06:52:48.813Z,102014.03
2023-04-17T06:55:15.375Z,101791.34
2023-04-17T06:57:36.489Z,101791.34
2023-04-17T06:57:41.748Z,101982.38
2023-04-17T07:00:08.817Z,102021.91
2023-04-17T07:02:35.445Z,102030.91
2023-04-17T07:02:36.604Z,102030.91
2023-04-17T07:05:01.889Z,102030.78
2023-04-17T07:07:30.595Z,101938.34
2023-04-17T07:07:36.509Z,101938.34
2023-04-17T07:09:57.018Z,102029.31
2023-04-17T07:12:23.386Z,102036.13
2023-04-17T07:12:36.528Z,102036.13
2023-04-17T07:14:50.289Z,102030.03
2023-04-17T07:17:16.750Z,101938.94
2023-04-17T07:17:36.598Z,101938.94
2023-04-17T07:19:43.206Z,102028.28
2023-04-17T07:22:10.116Z,102035.31
2023-04-17T07:22:36.483Z,102035.31
2023-04-17T07:24:36.643Z,102029.16
2023-04-17T07:27:03.821Z,101995.53
2023-04-17T07:27:36.465Z,101995.53
2023-04-17T07:29:30.622Z,102030.75
2023-04-17T07:31:57.014Z,102023.03
2023-04-17T07:32:36.505Z,102023.03
2023-04-17T07:34:25.155Z,102029.13
2023-04-17T07:36:54.659Z,102030.06
2023-04-17T07:37:36.481Z,102030.06
2023-04-17T07:39:21.294Z,102021.22
2023-04-17T07:41:49.000Z,101923.25
2023-04-17T07:42:36.496Z,101923.25
2023-04-17T07:44:15.932Z,102017.44
2023-04-17T07:46:42.354Z,102020.81
2023-04-17T07:47:36.550Z,102020.81
2023-04-17T07:49:11.381Z,101978.41
2023-04-17T07:51:41.012Z,101999.22
2023-04-17T07:52:36.535Z,101999.22
2023-04-17T07:54:07.688Z,101957.94
2023-04-17T07:56:34.968Z,101990.44
2023-04-17T07:57:36.497Z,101990.44
2023-04-17T07:59:01.386Z,101947.38
2023-04-17T08:01:27.925Z,101947.22
2023-04-17T08:02:36.596Z,101947.22
2023-04-17T08:03:55.501Z,101979.16
2023-04-17T08:06:22.154Z,101981.78
2023-04-17T08:07:36.484Z,101981.78
2023-04-17T08:08:48.503Z,101981.50
2023-04-17T08:11:14.986Z,101974.22
2023-04-17T08:12:36.512Z,101974.22
2023-04-17T08:13:41.436Z,101967.84
2023-04-17T08:16:09.106Z,101973.72
2023-04-17T08:17:36.556Z,101973.72
2023-04-17T08:18:37.442Z,101970.25
2023-04-17T08:21:04.354Z,101971.22
2023-04-17T08:22:36.480Z,101971.22
2023-04-17T08:23:30.917Z,101936.56
2023-04-17T08:25:57.305Z,101905.72
2023-04-17T08:27:36.563Z,101905.72
2023-04-17T08:28:24.413Z,101958.44
2023-04-17T08:30:51.292Z,101925.53
2023-04-17T08:32:36.613Z,101925.53
2023-04-17T08:33:18.358Z,101945.31
2023-04-17T08:35:44.922Z,101912.44
2023-04-17T08:37:36.623Z,101912.44
2023-04-17T08:38:14.060Z,101889.00
2023-04-17T08:40:42.907Z,101959.66
2023-04-17T08:42:36.631Z,101959.66
2023-04-17T08:43:19.587Z,101964.50
2023-04-17T08:45:55.111Z,101975.97
2023-04-17T08:47:36.658Z,101975.97
2023-04-17T08:48:22.957Z,101979.78
2023-04-17T08:50:51.553Z,101969.56
2023-04-17T08:52:36.636Z,101969.56
2023-04-17T08:53:20.971Z,101937.53
2023-04-17T08:55:48.178Z,101968.75
2023-04-17T08:57:36.692Z,101968.75
2023-04-17T08:58:15.103Z,101943.72
2023-04-17T09:00:43.512Z,101946.81
2023-04-17T09:02:36.786Z,101946.81
2023-04-17T09:03:14.062Z,101810.88
2023-04-17T09:05:43.545Z,101949.66
2023-04-17T09:07:36.745Z,101949.66
2023-04-17T09:08:21.726Z,101937.50
2023-04-17T09:10:53.046Z,101905.19
2023-04-17T09:12:36.705Z,101905.19
2023-04-17T09:13:25.348Z,101909.47
2023-04-17T09:16:09.449Z,101896.03
2023-04-17T09:17:36.795Z,101896.03
2023-04-17T09:18:37.140Z,101906.66
2023-04-17T09:21:05.592Z,101845.34
2023-04-17T09:22:36.794Z,101845.34
2023-04-17T09:23:46.593Z,101732.22
2023-04-17T09:26:14.902Z,101896.78
2023-04-17T09:27:36.811Z,101896.78
2023-04-17T09:28:59.884Z,101795.00
2023-04-17T09:31:28.248Z,101894.59
2023-04-17T09:32:36.855Z,101894.59
2023-04-17T09:34:01.956Z,101859.03
2023-04-17T09:36:30.474Z,101840.78
2023-04-17T09:37:36.842Z,101840.78
2023-04-17T09:38:59.959Z,101840.81
2023-04-17T09:41:27.422Z,101770.81
2023-04-17T09:42:36.852Z,101770.81
2023-04-17T09:43:55.364Z,101783.56
2023-04-17T09:46:38.236Z,101695.16
2023-04-17T09:47:36.869Z,101695.16
2023-04-17T09:49:10.345Z,101771.16
2023-04-17T09:51:37.384Z,101731.31
2023-04-17T09:52:36.841Z,101731.31
2023-04-17T09:54:05.572Z,101738.75
2023-04-17T09:56:33.945Z,101691.66
2023-04-17T09:57:36.888Z,101691.66
2023-04-17T09:59:04.048Z,101677.84
2023-04-17T10:01:36.904Z,101705.50
2023-04-17T10:02:37.006Z,101705.50
2023-04-17T10:04:04.710Z,101700.00
2023-04-17T10:06:32.959Z,101749.31
2023-04-17T10:07:36.839Z,101749.31
2023-04-17T10:08:59.506Z,101729.25
2023-04-17T10:11:31.417Z,101709.38
2023-04-17T10:12:36.836Z,101709.38
2023-04-17T10:14:18.125Z,101670.19
2023-04-17T10:16:44.777Z,101599.25
2023-04-17T10:17:36.838Z,101599.25
2023-04-17T10:19:32.482Z,101659.56
2023-04-17T10:22:19.886Z,101588.78
2023-04-17T10:22:36.821Z,101588.78
2023-04-17T10:24:48.699Z,101591.53
2023-04-17T10:27:27.094Z,101582.84
2023-04-17T10:27:36.825Z,101582.84
2023-04-17T10:30:00.188Z,101579.34
2023-04-17T10:32:29.061Z,101633.31
2023-04-17T10:32:36.875Z,101633.31
2023-04-17T10:35:06.525Z,101619.53
2023-04-17T10:37:51.327Z,101595.44
2023-04-17T10:37:51.474Z,101595.44
2023-04-17T10:40:22.048Z,101522.88
2023-04-17T10:42:36.841Z,101522.88
2023-04-17T10:43:14.446Z,101404.09
2023-04-17T10:45:56.845Z,101436.84
2023-04-17T10:47:36.860Z,101436.84
2023-04-17T10:48:38.883Z,101434.75
2023-04-17T10:51:24.246Z,101383.44
2023-04-17T10:52:36.839Z,101383.44
2023-04-17T10:53:55.237Z,101377.28
2023-04-17T10:56:46.076Z,101427.25
2023-04-17T10:57:36.868Z,101427.25
2023-04-17T10:59:17.389Z,101463.88
2023-04-17T11:01:50.756Z,101442.16
2023-04-17T11:02:36.855Z,101442.16
2023-04-17T11:04:24.390Z,101471.03
2023-04-17T11:06:52.627Z,101428.88
2023-04-17T11:07:36.817Z,101428.88
2023-04-17T11:09:22.140Z,101428.69
2023-04-17T11:11:48.781Z,101370.94
2023-04-17T11:12:36.827Z,101370.94
2023-04-17T11:14:16.833Z,101369.63
2023-04-17T11:16:45.102Z,101345.19
2023-04-17T11:17:36.841Z,101345.19
2023-04-17T11:19:16.870Z,101316.75
2023-04-17T11:21:44.422Z,101179.81
2023-04-17T11:22:36.824Z,101179.81
2023-04-17T11:24:11.098Z,101364.00
2023-04-17T11:26:47.519Z,101343.31
2023-04-17T11:27:36.855Z,101343.31
2023-04-17T11:29:21.933Z,101317.34
2023-04-17T11:31:50.006Z,101293.03
2023-04-17T11:32:36.889Z,101293.03
2023-04-17T11:34:17.009Z,101324.50
2023-04-17T11:36:49.922Z,101276.66
2023-04-17T11:37:36.886Z,101276.66
2023-04-17T11:39:17.192Z,101275.00
2023-04-17T11:41:44.819Z,101305.59
2023-04-17T11:42:36.849Z,101305.59
2023-04-17T11:44:15.192Z,101311.28
2023-04-17T11:46:41.649Z,101377.97
2023-04-17T11:47:36.910Z,101377.97
2023-04-17T11:49:08.734Z,101340.47
2023-04-17T11:51:35.390Z,101290.38
2023-04-17T11:52:36.850Z,101290.38
2023-04-17T11:54:01.786Z,101313.47
2023-04-17T11:56:31.164Z,101281.31
2023-04-17T11:57:36.828Z,101281.31
2023-04-17T11:58:59.091Z,101299.91
2023-04-17T12:01:26.909Z,101273.78
2023-04-17T12:02:37.036Z,101273.78
2023-04-17T12:03:54.894Z,101342.78
2023-04-17T12:06:24.784Z,101182.38
2023-04-17T12:07:36.849Z,101182.38
2023-04-17T12:08:53.690Z,101206.34
2023-04-17T12:11:26.090Z,101266.88
2023-04-17T12:12:36.849Z,101266.88
2023-04-17T12:13:53.676Z,101331.81
2023-04-17T12:16:20.175Z,101241.59
2023-04-17T12:17:36.886Z,101241.59
2023-04-17T12:18:46.712Z,101267.91
2023-04-17T12:21:14.328Z,101291.72
2023-04-17T12:22:36.838Z,101291.72
2023-04-17T12:23:41.388Z,101377.28
2023-04-17T12:26:08.542Z,101264.97
2023-04-17T12:27:36.892Z,101264.97
2023-04-17T12:28:35.528Z,101281.78
2023-04-17T12:31:02.731Z,101278.28
2023-04-17T12:32:36.868Z,101278.28
2023-04-17T12:33:29.138Z,101237.25
2023-04-17T12:35:55.842Z,101343.84
2023-04-17T12:37:36.853Z,101343.84
2023-04-17T12:38:23.355Z,101291.72
2023-04-17T12:40:49.959Z,101276.63
2023-04-17T12:42:46.508Z,101276.63
2023-04-17T12:43:16.465Z,101345.75
2023-04-17T12:45:45.446Z,101249.13
2023-04-17T12:47:36.959Z,101249.13
2023-04-17T12:48:13.338Z,101063.06
2023-04-17T12:50:43.717Z,101246.38
2023-04-17T12:52:36.857Z,101246.38
2023-04-17T12:53:14.232Z,101285.53
2023-04-17T12:55:43.423Z,101276.34
2023-04-17T12:57:36.856Z,101276.34
2023-04-17T12:58:11.876Z,101278.34
2023-04-17T13:00:39.484Z,101306.69
2023-04-17T13:02:37.087Z,101306.69
2023-04-17T13:03:06.348Z,101204.72
2023-04-17T13:05:32.913Z,101392.50
2023-04-17T13:07:36.839Z,101392.50
2023-04-17T13:07:59.522Z,101368.78
2023-04-17T13:10:25.986Z,101297.16
2023-04-17T13:12:36.860Z,101297.16
2023-04-17T13:12:52.677Z,101294.53
2023-04-17T13:15:21.918Z,101294.16
2023-04-17T13:17:36.872Z,101294.16
2023-04-17T13:17:48.428Z,101310.69
2023-04-17T13:20:14.883Z,101334.72
2023-04-17T13:22:36.853Z,101334.72
2023-04-17T13:22:41.267Z,101271.59
2023-04-17T13:25:08.069Z,101397.88
2023-04-17T13:27:34.417Z,101339.59
2023-04-17T13:27:36.830Z,101339.59
2023-04-17T13:30:00.792Z,101285.03
2023-04-17T13:32:27.224Z,101303.13
2023-04-17T13:32:36.870Z,101303.13
2023-04-17T13:34:53.777Z,101237.81
2023-04-17T13:37:22.533Z,101381.44
2023-04-17T13:37:36.851Z,101381.44
2023-04-17T13:39:48.908Z,101310.97
2023-04-17T13:42:16.877Z,101376.28
2023-04-17T13:42:36.853Z,101376.28
2023-04-17T13:44:43.366Z,101337.56
2023-04-17T13:47:09.720Z,101310.56
2023-04-17T13:47:36.893Z,101310.56
2023-04-17T13:49:36.499Z,101365.38
2023-04-17T13:52:03.656Z,101310.00
2023-04-17T13:52:36.865Z,101310.00
2023-04-17T13:54:30.006Z,101365.06
2023-04-17T13:56:57.222Z,101295.00
2023-04-17T13:57:36.875Z,101295.00
2023-04-17T13:59:23.747Z,101362.16
2023-04-17T14:01:50.290Z,101443.13
2023-04-17T14:02:36.997Z,101443.13
2023-04-17T14:04:16.837Z,101257.72
2023-04-17T14:06:44.098Z,101372.00
2023-04-17T14:07:36.847Z,101372.00
2023-04-17T14:09:11.331Z,101307.88
2023-04-17T14:11:37.982Z,101294.88
2023-04-17T14:12:36.870Z,101294.88
2023-04-17T14:14:04.373Z,101225.19
2023-04-17T14:16:30.829Z,101326.56
2023-04-17T14:17:36.916Z,101326.56
2023-04-17T14:19:01.374Z,101273.88
2023-04-17T14:21:33.062Z,101303.69
2023-04-17T14:22:36.887Z,101303.69
2023-04-17T14:23:59.400Z,101320.91
2023-04-17T14:26:25.761Z,101290.72
2023-04-17T14:27:36.847Z,101290.72
2023-04-17T14:28:52.077Z,101354.50
2023-04-17T14:31:18.434Z,101454.19
2023-04-17T14:32:36.914Z,101454.19
2023-04-17T14:33:44.770Z,101406.72
2023-04-17T14:36:11.250Z,101282.47
2023-04-17T14:37:36.871Z,101282.47
2023-04-17T14:38:37.725Z,101402.09
2023-04-17T14:41:04.176Z,101389.94
2023-04-17T14:42:47.339Z,101389.94
2023-04-17T14:43:30.590Z,101263.72
2023-04-17T14:45:57.045Z,101410.81
2023-04-17T14:47:36.898Z,101410.81
2023-04-17T14:48:23.944Z,101369.72
2023-04-17T14:50:50.722Z,101375.72
2023-04-17T14:52:36.844Z,101375.72
2023-04-17T14:53:17.608Z,101369.84
2023-04-17T14:55:45.303Z,101313.69
2023-04-17T14:57:36.868Z,101313.69
2023-04-17T14:58:11.764Z,101265.16
2023-04-17T15:00:39.608Z,101314.97
2023-04-17T15:02:36.912Z,101314.97
2023-04-17T15:03:07.181Z,101281.44
2023-04-17T15:05:33.942Z,101262.97
2023-04-17T15:07:36.851Z,101262.97
2023-04-17T15:08:00.313Z,101242.38
2023-04-17T15:10:28.654Z,101270.19
2023-04-17T15:12:36.892Z,101270.19
2023-04-17T15:13:00.138Z,101312.50
2023-04-17T15:15:28.404Z,101304.28
2023-04-17T15:17:36.888Z,101304.28
2023-04-17T15:17:54.891Z,101388.78
2023-04-17T15:20:24.905Z,101361.19
2023-04-17T15:22:36.899Z,101361.19
2023-04-17T15:23:00.193Z,101359.50
2023-04-17T15:25:26.554Z,101305.56
2023-04-17T15:27:36.884Z,101305.56
2023-04-17T15:27:52.929Z,101347.41
2023-04-17T15:30:19.340Z,101315.03
2023-04-17T15:32:36.928Z,101315.03
2023-04-17T15:32:45.800Z,101351.19
2023-04-17T15:35:12.254Z,101360.34
2023-04-17T15:37:36.876Z,101360.34
2023-04-17T15:37:39.388Z,101389.19
2023-04-17T15:40:07.728Z,101320.31
2023-04-17T15:42:35.648Z,101229.97
2023-04-17T15:42:36.891Z,101229.97
2023-04-17T15:45:02.047Z,101403.59
2023-04-17T15:47:28.462Z,101348.09
2023-04-17T15:47:36.936Z,101348.09
2023-04-17T15:49:54.830Z,101327.38
2023-04-17T15:52:21.243Z,101347.84
2023-04-17T15:52:36.859Z,101347.84
2023-04-17T15:54:47.599Z,101431.91
2023-04-17T15:57:13.942Z,101407.66
2023-04-17T15:57:36.894Z,101407.66
2023-04-17T15:59:40.455Z,101380.75
2023-04-17T16:02:06.859Z,101390.41
2023-04-17T16:02:36.989Z,101390.41
2023-04-17T16:04:33.336Z,101439.59
2023-04-17T16:06:59.795Z,101320.47
2023-04-17T16:07:36.905Z,101320.47
2023-04-17T16:09:26.193Z,101395.25
2023-04-17T16:11:52.836Z,101430.28
2023-04-17T16:12:36.890Z,101430.28
2023-04-17T16:14:19.252Z,101413.19
2023-04-17T16:16:45.666Z,101453.97
2023-04-17T16:17:36.920Z,101453.97
2023-04-17T16:19:12.150Z,101436.34
2023-04-17T16:21:38.701Z,101403.09
2023-04-17T16:22:36.886Z,101403.09
2023-04-17T16:24:05.173Z,101347.44
2023-04-17T16:26:31.627Z,101385.38
2023-04-17T16:27:36.885Z,101385.38
2023-04-17T16:28:58.419Z,101395.09
2023-04-17T16:31:28.172Z,101381.56
2023-04-17T16:32:36.917Z,101381.56
2023-04-17T16:33:55.405Z,101439.84
2023-04-17T16:36:22.073Z,101458.22
2023-04-17T16:37:36.925Z,101458.22
2023-04-17T16:38:48.463Z,101449.47
2023-04-17T16:41:15.097Z,101382.53
2023-04-17T16:42:36.870Z,101382.53
2023-04-17T16:43:42.492Z,101306.09
2023-04-17T16:46:20.720Z,101278.28
2023-04-17T16:47:36.922Z,101278.28
2023-04-17T16:48:51.199Z,101384.25
2023-04-17T16:51:23.700Z,101323.75
2023-04-17T16:52:36.901Z,101323.75
2023-04-17T16:53:50.483Z,101385.34
2023-04-17T16:56:16.852Z,101399.72
2023-04-17T16:57:36.876Z,101399.72
2023-04-17T16:58:43.245Z,101440.88
2023-04-17T17:01:11.898Z,101393.47
2023-04-17T17:02:37.005Z,101393.47
2023-04-17T17:03:38.510Z,101411.66
2023-04-17T17:06:07.003Z,101369.44
2023-04-17T17:07:36.913Z,101369.44
2023-04-17T17:08:33.474Z,101380.00
2023-04-17T17:10:59.931Z,101409.03
2023-04-17T17:12:36.876Z,101409.03
2023-04-17T17:13:26.810Z,101367.91
2023-04-17T17:15:53.401Z,101386.66
2023-04-17T17:17:36.936Z,101386.66
2023-04-17T17:18:19.746Z,101402.13
2023-04-17T17:20:48.708Z,101405.38
2023-04-17T17:22:36.886Z,101405.38
2023-04-17T17:23:15.015Z,101425.59
2023-04-17T17:25:41.302Z,101282.75
2023-04-17T17:27:36.905Z,101282.75
2023-04-17T17:28:07.729Z,101320.97
2023-04-17T17:30:34.068Z,101302.81
2023-04-17T17:32:36.905Z,101302.81
2023-04-17T17:33:00.618Z,101387.81
2023-04-17T17:35:27.047Z,101398.13
2023-04-17T17:37:36.942Z,101398.13
2023-04-17T17:37:53.483Z,101399.47
2023-04-17T17:40:19.893Z,101387.66
2023-04-17T17:42:36.874Z,101387.66
2023-04-17T17:42:46.371Z,101327.69
2023-04-17T17:45:12.777Z,101374.75
2023-04-17T17:47:36.975Z,101374.75
2023-04-17T17:47:39.943Z,101414.88
2023-04-17T17:50:07.979Z,101400.28
2023-04-17T17:52:34.313Z,101428.28
2023-04-17T17:52:36.929Z,101428.28
2023-04-17T17:55:00.735Z,101242.50
2023-04-17T17:57:33.046Z,101408.91
2023-04-17T17:57:48.839Z,101408.91
2023-04-17T18:00:05.481Z,101407.91
2023-04-17T18:02:32.659Z,101416.78
2023-04-17T18:02:36.972Z,101416.78
2023-04-17T18:04:59.128Z,101439.53
2023-04-17T18:07:26.268Z,101362.22
2023-04-17T18:07:36.907Z,101362.22
2023-04-17T18:09:52.712Z,101434.34
2023-04-17T18:12:19.146Z,101441.03
2023-04-17T18:12:36.915Z,101441.03
2023-04-17T18:14:45.576Z,101436.84
2023-04-17T18:17:11.924Z,101450.47
2023-04-17T18:17:36.983Z,101450.47
2023-04-17T18:19:40.889Z,101411.03
2023-04-17T18:22:08.593Z,101475.59
2023-04-17T18:22:36.897Z,101475.59
2023-04-17T18:24:35.962Z,101469.38
2023-04-17T18:27:02.784Z,101448.59
2023-04-17T18:27:36.905Z,101448.59
2023-04-17T18:29:29.546Z,101417.19
2023-04-17T18:31:55.979Z,101495.50
2023-04-17T18:32:36.943Z,101495.50
2023-04-17T18:34:25.450Z,101448.97
2023-04-17T18:36:51.990Z,101504.91
2023-04-17T18:37:36.894Z,101504.91
2023-04-17T18:39:21.218Z,101448.94
2023-04-17T18:41:47.675Z,101421.00
2023-04-17T18:42:36.918Z,101421.00
2023-04-17T18:44:14.642Z,101334.06
2023-04-17T18:46:41.248Z,101509.38
2023-04-17T18:47:36.951Z,101509.38
2023-04-17T18:49:07.707Z,101338.25
2023-04-17T18:51:34.028Z,101516.25